sensor_id;sensor_type;location;lat;lon;timestamp;P1;durP1;ratioP1;P2;durP2;ratioP2
51438;SDS011;38816;51.142;-0.974;2022-11-15T00:01:11;9.18;;;1.55;;
51438;SDS011;38816;51.142;-0.974;2022-11-15T00:03:41;16.58;;;2.00;;
51438;SDS011;38816;51.142;-0.974;2022-11-15T00:06:08;11.98;;;1.85;;
51438;SDS011;38816;51.142;-0.974;2022-11-15T00:08:33;10.60;;;1.65;;
51438;SDS011;38816;51.142;-0.974;2022-11-15T00:11:00;17.98;;;1.65;;
51438;SDS011;38816;51.142;-0.974;2022-11-15T00:13:27;15.63;;;2.28;;
51438;SDS011;38816;51.142;-0.974;2022-11-15T00:15:56;16.48;;;1.80;;
51438;SDS011;38816;51.142;-0.974;2022-11-15T00:18:22;13.82;;;1.80;;
51438;SDS011;38816;51.142;-0.974;2022-11-15T00:20:47;22.98;;;1.77;;
51438;SDS011;38816;51.142;-0.974;2022-11-15T00:23:13;21.70;;;2.05;;
51438;SDS011;38816;51.142;-0.974;2022-11-15T00:25:38;20.83;;;1.70;;
51438;SDS011;38816;51.142;-0.974;2022-11-15T00:28:04;15.93;;;1.90;;
51438;SDS011;38816;51.142;-0.974;2022-11-15T00:30:29;14.15;;;1.30;;
51438;SDS011;38816;51.142;-0.974;2022-11-15T00:32:55;19.83;;;2.00;;
51438;SDS011;38816;51.142;-0.974;2022-11-15T00:35:20;12.48;;;1.95;;
51438;SDS011;38816;51.142;-0.974;2022-11-15T00:37:46;16.67;;;1.52;;
51438;SDS011;38816;51.142;-0.974;2022-11-15T00:40:12;22.45;;;3.10;;
51438;SDS011;38816;51.142;-0.974;2022-11-15T00:42:39;13.38;;;1.20;;
51438;SDS011;38816;51.142;-0.974;2022-11-15T00:45:05;19.38;;;1.98;;
51438;SDS011;38816;51.142;-0.974;2022-11-15T00:47:30;20.23;;;1.50;;
51438;SDS011;38816;51.142;-0.974;2022-11-15T00:49:56;19.23;;;1.58;;
51438;SDS011;38816;51.142;-0.974;2022-11-15T00:52:21;24.90;;;1.65;;
51438;SDS011;38816;51.142;-0.974;2022-11-15T00:54:47;15.70;;;1.92;;
51438;SDS011;38816;51.142;-0.974;2022-11-15T00:57:12;13.82;;;1.88;;
51438;SDS011;38816;51.142;-0.974;2022-11-15T00:59:37;11.55;;;1.42;;
51438;SDS011;38816;51.142;-0.974;2022-11-15T01:02:03;21.13;;;2.55;;
51438;SDS011;38816;51.142;-0.974;2022-11-15T01:04:28;17.27;;;1.63;;
51438;SDS011;38816;51.142;-0.974;2022-11-15T01:06:53;15.55;;;1.60;;
51438;SDS011;38816;51.142;-0.974;2022-11-15T01:09:19;15.65;;;1.50;;
51438;SDS011;38816;51.142;-0.974;2022-11-15T01:11:44;27.63;;;2.00;;
51438;SDS011;38816;51.142;-0.974;2022-11-15T01:14:10;16.73;;;1.65;;
51438;SDS011;38816;51.142;-0.974;2022-11-15T01:16:35;24.08;;;1.80;;
51438;SDS011;38816;51.142;-0.974;2022-11-15T01:19:00;12.52;;;1.45;;
51438;SDS011;38816;51.142;-0.974;2022-11-15T01:21:26;15.10;;;2.00;;
51438;SDS011;38816;51.142;-0.974;2022-11-15T01:23:55;23.27;;;1.65;;
51438;SDS011;38816;51.142;-0.974;2022-11-15T01:26:22;20.95;;;1.58;;
51438;SDS011;38816;51.142;-0.974;2022-11-15T01:28:48;20.67;;;1.67;;
51438;SDS011;38816;51.142;-0.974;2022-11-15T01:31:14;16.83;;;1.65;;
51438;SDS011;38816;51.142;-0.974;2022-11-15T01:33:42;27.40;;;1.90;;
51438;SDS011;38816;51.142;-0.974;2022-11-15T01:36:10;29.13;;;4.00;;
51438;SDS011;38816;51.142;-0.974;2022-11-15T01:38:37;30.50;;;2.10;;
51438;SDS011;38816;51.142;-0.974;2022-11-15T01:41:03;25.23;;;2.15;;
51438;SDS011;38816;51.142;-0.974;2022-11-15T01:43:33;21.27;;;1.92;;
51438;SDS011;38816;51.142;-0.974;2022-11-15T01:48:44;27.60;;;2.33;;
51438;SDS011;38816;51.142;-0.974;2022-11-15T01:51:10;20.95;;;1.98;;
51438;SDS011;38816;51.142;-0.974;2022-11-15T01:53:38;21.75;;;2.20;;
51438;SDS011;38816;51.142;-0.974;2022-11-15T01:56:08;21.08;;;2.00;;
51438;SDS011;38816;51.142;-0.974;2022-11-15T01:58:36;22.75;;;1.98;;
51438;SDS011;38816;51.142;-0.974;2022-11-15T02:01:03;20.10;;;2.22;;
51438;SDS011;38816;51.142;-0.974;2022-11-15T02:03:40;26.42;;;2.15;;
51438;SDS011;38816;51.142;-0.974;2022-11-15T02:06:10;32.20;;;2.22;;
51438;SDS011;38816;51.142;-0.974;2022-11-15T02:08:36;23.98;;;2.40;;
51438;SDS011;38816;51.142;-0.974;2022-11-15T02:11:04;20.85;;;2.33;;
51438;SDS011;38816;51.142;-0.974;2022-11-15T02:13:32;17.88;;;2.33;;
51438;SDS011;38816;51.142;-0.974;2022-11-15T02:16:17;18.17;;;2.25;;
51438;SDS011;38816;51.142;-0.974;2022-11-15T02:18:59;23.05;;;2.28;;
51438;SDS011;38816;51.142;-0.974;2022-11-15T02:21:51;17.60;;;2.13;;
51438;SDS011;38816;51.142;-0.974;2022-11-15T02:30:51;19.63;;;2.17;;
51438;SDS011;38816;51.142;-0.974;2022-11-15T02:33:35;25.02;;;2.30;;
51438;SDS011;38816;51.142;-0.974;2022-11-15T02:38:46;20.23;;;1.77;;
51438;SDS011;38816;51.142;-0.974;2022-11-15T02:41:36;18.90;;;1.63;;
51438;SDS011;38816;51.142;-0.974;2022-11-15T02:44:13;24.05;;;2.17;;
51438;SDS011;38816;51.142;-0.974;2022-11-15T02:46:49;22.48;;;2.53;;
51438;SDS011;38816;51.142;-0.974;2022-11-15T02:49:37;18.33;;;2.20;;
51438;SDS011;38816;51.142;-0.974;2022-11-15T02:52:06;12.48;;;2.00;;
51438;SDS011;38816;51.142;-0.974;2022-11-15T02:54:32;20.27;;;2.35;;
51438;SDS011;38816;51.142;-0.974;2022-11-15T02:57:10;15.55;;;1.90;;
51438;SDS011;38816;51.142;-0.974;2022-11-15T02:59:43;26.38;;;2.20;;
51438;SDS011;38816;51.142;-0.974;2022-11-15T03:05:15;19.50;;;2.22;;
51438;SDS011;38816;51.142;-0.974;2022-11-15T03:15:53;13.73;;;1.85;;
51438;SDS011;38816;51.142;-0.974;2022-11-15T03:18:34;17.15;;;1.95;;
51438;SDS011;38816;51.142;-0.974;2022-11-15T03:21:05;22.02;;;2.33;;
51438;SDS011;38816;51.142;-0.974;2022-11-15T03:23:33;20.05;;;2.75;;
51438;SDS011;38816;51.142;-0.974;2022-11-15T03:26:01;26.25;;;2.28;;
51438;SDS011;38816;51.142;-0.974;2022-11-15T03:28:37;12.40;;;2.00;;
51438;SDS011;38816;51.142;-0.974;2022-11-15T03:31:07;13.48;;;1.90;;
51438;SDS011;38816;51.142;-0.974;2022-11-15T03:33:55;14.55;;;1.60;;
51438;SDS011;38816;51.142;-0.974;2022-11-15T03:36:23;17.85;;;1.95;;
51438;SDS011;38816;51.142;-0.974;2022-11-15T03:38:50;13.95;;;1.92;;
51438;SDS011;38816;51.142;-0.974;2022-11-15T03:41:27;14.40;;;1.85;;
51438;SDS011;38816;51.142;-0.974;2022-11-15T03:44:11;15.88;;;2.08;;
51438;SDS011;38816;51.142;-0.974;2022-11-15T03:46:51;14.05;;;1.40;;
51438;SDS011;38816;51.142;-0.974;2022-11-15T03:49:27;15.60;;;1.77;;
51438;SDS011;38816;51.142;-0.974;2022-11-15T03:51:57;11.27;;;2.00;;
51438;SDS011;38816;51.142;-0.974;2022-11-15T03:54:23;16.88;;;1.80;;
51438;SDS011;38816;51.142;-0.974;2022-11-15T03:56:49;16.05;;;3.63;;
51438;SDS011;38816;51.142;-0.974;2022-11-15T03:59:14;14.52;;;2.25;;
51438;SDS011;38816;51.142;-0.974;2022-11-15T04:01:40;18.20;;;1.88;;
51438;SDS011;38816;51.142;-0.974;2022-11-15T04:04:05;23.65;;;2.30;;
51438;SDS011;38816;51.142;-0.974;2022-11-15T04:06:30;13.70;;;2.55;;
51438;SDS011;38816;51.142;-0.974;2022-11-15T04:08:56;23.10;;;2.17;;
51438;SDS011;38816;51.142;-0.974;2022-11-15T04:11:21;18.52;;;2.25;;
51438;SDS011;38816;51.142;-0.974;2022-11-15T04:13:46;17.35;;;1.98;;
51438;SDS011;38816;51.142;-0.974;2022-11-15T04:16:12;24.90;;;2.28;;
51438;SDS011;38816;51.142;-0.974;2022-11-15T04:18:37;19.90;;;1.98;;
51438;SDS011;38816;51.142;-0.974;2022-11-15T04:21:02;25.05;;;2.40;;
51438;SDS011;38816;51.142;-0.974;2022-11-15T04:23:46;16.30;;;2.45;;
51438;SDS011;38816;51.142;-0.974;2022-11-15T04:26:32;24.58;;;2.67;;
51438;SDS011;38816;51.142;-0.974;2022-11-15T04:28:58;26.25;;;2.50;;
51438;SDS011;38816;51.142;-0.974;2022-11-15T04:31:42;17.90;;;2.03;;
51438;SDS011;38816;51.142;-0.974;2022-11-15T04:34:07;21.00;;;2.22;;
51438;SDS011;38816;51.142;-0.974;2022-11-15T04:36:32;19.55;;;2.22;;
51438;SDS011;38816;51.142;-0.974;2022-11-15T04:39:16;21.00;;;2.20;;
51438;SDS011;38816;51.142;-0.974;2022-11-15T04:41:42;20.65;;;2.90;;
51438;SDS011;38816;51.142;-0.974;2022-11-15T04:44:07;21.25;;;2.05;;
51438;SDS011;38816;51.142;-0.974;2022-11-15T04:46:33;23.70;;;2.38;;
51438;SDS011;38816;51.142;-0.974;2022-11-15T04:48:58;22.48;;;2.88;;
51438;SDS011;38816;51.142;-0.974;2022-11-15T04:51:23;15.80;;;1.85;;
51438;SDS011;38816;51.142;-0.974;2022-11-15T04:53:49;16.45;;;1.90;;
51438;SDS011;38816;51.142;-0.974;2022-11-15T04:56:14;14.45;;;1.77;;
51438;SDS011;38816;51.142;-0.974;2022-11-15T04:58:39;12.93;;;1.48;;
51438;SDS011;38816;51.142;-0.974;2022-11-15T05:03:58;17.67;;;2.60;;
51438;SDS011;38816;51.142;-0.974;2022-11-15T05:06:42;19.15;;;2.17;;
51438;SDS011;38816;51.142;-0.974;2022-11-15T05:09:07;13.50;;;1.90;;
51438;SDS011;38816;51.142;-0.974;2022-11-15T05:11:33;17.73;;;1.50;;
51438;SDS011;38816;51.142;-0.974;2022-11-15T05:13:59;14.90;;;1.88;;
51438;SDS011;38816;51.142;-0.974;2022-11-15T05:16:24;12.68;;;1.83;;
51438;SDS011;38816;51.142;-0.974;2022-11-15T05:18:53;11.60;;;1.80;;
51438;SDS011;38816;51.142;-0.974;2022-11-15T05:21:19;8.18;;;1.42;;
51438;SDS011;38816;51.142;-0.974;2022-11-15T05:23:45;9.75;;;1.50;;
51438;SDS011;38816;51.142;-0.974;2022-11-15T05:26:11;13.77;;;1.55;;
51438;SDS011;38816;51.142;-0.974;2022-11-15T05:28:37;11.93;;;1.20;;
51438;SDS011;38816;51.142;-0.974;2022-11-15T05:31:04;8.20;;;1.10;;
51438;SDS011;38816;51.142;-0.974;2022-11-15T05:33:33;14.10;;;1.40;;
51438;SDS011;38816;51.142;-0.974;2022-11-15T05:36:02;14.85;;;1.83;;
51438;SDS011;38816;51.142;-0.974;2022-11-15T05:38:32;10.52;;;1.50;;
51438;SDS011;38816;51.142;-0.974;2022-11-15T05:40:59;4.80;;;1.10;;
51438;SDS011;38816;51.142;-0.974;2022-11-15T05:43:26;9.95;;;1.48;;
51438;SDS011;38816;51.142;-0.974;2022-11-15T05:45:52;11.32;;;1.10;;
51438;SDS011;38816;51.142;-0.974;2022-11-15T05:48:18;10.68;;;1.65;;
51438;SDS011;38816;51.142;-0.974;2022-11-15T05:50:45;13.43;;;1.67;;
51438;SDS011;38816;51.142;-0.974;2022-11-15T05:53:13;11.05;;;1.00;;
51438;SDS011;38816;51.142;-0.974;2022-11-15T05:55:41;16.40;;;1.35;;
51438;SDS011;38816;51.142;-0.974;2022-11-15T05:58:06;11.10;;;1.23;;
51438;SDS011;38816;51.142;-0.974;2022-11-15T06:00:32;6.72;;;1.00;;
51438;SDS011;38816;51.142;-0.974;2022-11-15T06:02:57;6.68;;;1.48;;
51438;SDS011;38816;51.142;-0.974;2022-11-15T06:05:23;13.13;;;1.50;;
51438;SDS011;38816;51.142;-0.974;2022-11-15T06:07:48;5.32;;;1.08;;
51438;SDS011;38816;51.142;-0.974;2022-11-15T06:10:14;11.93;;;1.35;;
51438;SDS011;38816;51.142;-0.974;2022-11-15T06:12:39;21.65;;;1.80;;
51438;SDS011;38816;51.142;-0.974;2022-11-15T06:15:04;11.57;;;1.42;;
51438;SDS011;38816;51.142;-0.974;2022-11-15T06:17:30;12.75;;;2.63;;
51438;SDS011;38816;51.142;-0.974;2022-11-15T06:19:56;5.85;;;1.20;;
51438;SDS011;38816;51.142;-0.974;2022-11-15T06:22:21;7.70;;;1.40;;
51438;SDS011;38816;51.142;-0.974;2022-11-15T06:24:46;6.43;;;1.00;;
51438;SDS011;38816;51.142;-0.974;2022-11-15T06:27:12;6.03;;;0.82;;
51438;SDS011;38816;51.142;-0.974;2022-11-15T06:29:37;7.70;;;1.65;;
51438;SDS011;38816;51.142;-0.974;2022-11-15T06:32:03;8.98;;;1.40;;
51438;SDS011;38816;51.142;-0.974;2022-11-15T06:34:28;13.55;;;1.10;;
51438;SDS011;38816;51.142;-0.974;2022-11-15T06:36:54;3.75;;;1.00;;
51438;SDS011;38816;51.142;-0.974;2022-11-15T06:39:19;5.25;;;1.00;;
51438;SDS011;38816;51.142;-0.974;2022-11-15T06:41:45;4.95;;;0.75;;
51438;SDS011;38816;51.142;-0.974;2022-11-15T06:44:10;6.38;;;1.10;;
51438;SDS011;38816;51.142;-0.974;2022-11-15T06:46:36;8.85;;;1.27;;
51438;SDS011;38816;51.142;-0.974;2022-11-15T06:49:01;3.35;;;0.80;;
51438;SDS011;38816;51.142;-0.974;2022-11-15T06:51:26;9.35;;;1.10;;
51438;SDS011;38816;51.142;-0.974;2022-11-15T06:53:52;5.75;;;1.10;;
51438;SDS011;38816;51.142;-0.974;2022-11-15T06:56:17;3.78;;;0.80;;
51438;SDS011;38816;51.142;-0.974;2022-11-15T06:58:42;4.85;;;1.00;;
51438;SDS011;38816;51.142;-0.974;2022-11-15T07:01:09;6.60;;;1.00;;
51438;SDS011;38816;51.142;-0.974;2022-11-15T07:03:36;5.30;;;0.55;;
51438;SDS011;38816;51.142;-0.974;2022-11-15T07:06:03;4.93;;;0.80;;
51438;SDS011;38816;51.142;-0.974;2022-11-15T07:08:29;7.93;;;0.80;;
51438;SDS011;38816;51.142;-0.974;2022-11-15T07:10:57;11.85;;;0.70;;
51438;SDS011;38816;51.142;-0.974;2022-11-15T07:13:25;5.20;;;0.47;;
51438;SDS011;38816;51.142;-0.974;2022-11-15T07:15:51;4.13;;;0.70;;
51438;SDS011;38816;51.142;-0.974;2022-11-15T07:18:17;4.55;;;0.75;;
51438;SDS011;38816;51.142;-0.974;2022-11-15T07:20:42;3.50;;;0.70;;
51438;SDS011;38816;51.142;-0.974;2022-11-15T07:23:08;1.40;;;0.50;;
51438;SDS011;38816;51.142;-0.974;2022-11-15T07:25:33;4.32;;;0.60;;
51438;SDS011;38816;51.142;-0.974;2022-11-15T07:27:59;5.30;;;1.38;;
51438;SDS011;38816;51.142;-0.974;2022-11-15T07:30:25;0.98;;;0.40;;
51438;SDS011;38816;51.142;-0.974;2022-11-15T07:32:55;3.85;;;0.70;;
51438;SDS011;38816;51.142;-0.974;2022-11-15T07:37:57;3.65;;;0.70;;
51438;SDS011;38816;51.142;-0.974;2022-11-15T07:40:25;4.95;;;0.70;;
51438;SDS011;38816;51.142;-0.974;2022-11-15T07:42:51;5.15;;;0.80;;
51438;SDS011;38816;51.142;-0.974;2022-11-15T07:45:21;4.20;;;0.70;;
51438;SDS011;38816;51.142;-0.974;2022-11-15T07:47:48;5.38;;;0.80;;
51438;SDS011;38816;51.142;-0.974;2022-11-15T07:50:15;6.43;;;0.70;;
51438;SDS011;38816;51.142;-0.974;2022-11-15T07:52:41;5.80;;;0.85;;
51438;SDS011;38816;51.142;-0.974;2022-11-15T07:55:07;6.90;;;0.60;;
51438;SDS011;38816;51.142;-0.974;2022-11-15T07:57:32;6.05;;;1.00;;
51438;SDS011;38816;51.142;-0.974;2022-11-15T07:59:58;9.40;;;0.68;;
51438;SDS011;38816;51.142;-0.974;2022-11-15T08:02:23;3.55;;;0.57;;
51438;SDS011;38816;51.142;-0.974;2022-11-15T08:04:48;13.13;;;0.80;;
51438;SDS011;38816;51.142;-0.974;2022-11-15T08:07:14;12.13;;;1.10;;
51438;SDS011;38816;51.142;-0.974;2022-11-15T08:09:39;13.00;;;0.82;;
51438;SDS011;38816;51.142;-0.974;2022-11-15T08:12:04;4.40;;;0.75;;
51438;SDS011;38816;51.142;-0.974;2022-11-15T08:14:30;5.88;;;0.90;;
51438;SDS011;38816;51.142;-0.974;2022-11-15T08:16:56;6.35;;;0.77;;
51438;SDS011;38816;51.142;-0.974;2022-11-15T08:19:21;4.25;;;0.80;;
51438;SDS011;38816;51.142;-0.974;2022-11-15T08:21:47;7.55;;;0.90;;
51438;SDS011;38816;51.142;-0.974;2022-11-15T08:24:12;8.00;;;0.70;;
51438;SDS011;38816;51.142;-0.974;2022-11-15T08:26:37;7.57;;;1.00;;
51438;SDS011;38816;51.142;-0.974;2022-11-15T08:29:03;8.50;;;0.88;;
51438;SDS011;38816;51.142;-0.974;2022-11-15T08:31:28;6.47;;;1.23;;
51438;SDS011;38816;51.142;-0.974;2022-11-15T08:33:54;9.00;;;1.10;;
51438;SDS011;38816;51.142;-0.974;2022-11-15T08:36:19;10.10;;;1.30;;
51438;SDS011;38816;51.142;-0.974;2022-11-15T08:38:45;10.93;;;1.13;;
51438;SDS011;38816;51.142;-0.974;2022-11-15T08:41:14;20.58;;;1.75;;
51438;SDS011;38816;51.142;-0.974;2022-11-15T08:43:51;17.95;;;1.55;;
51438;SDS011;38816;51.142;-0.974;2022-11-15T08:46:17;9.88;;;1.35;;
51438;SDS011;38816;51.142;-0.974;2022-11-15T08:48:43;14.30;;;1.75;;
51438;SDS011;38816;51.142;-0.974;2022-11-15T08:51:08;14.25;;;2.15;;
51438;SDS011;38816;51.142;-0.974;2022-11-15T08:53:34;15.32;;;1.42;;
51438;SDS011;38816;51.142;-0.974;2022-11-15T08:55:59;8.07;;;1.20;;
51438;SDS011;38816;51.142;-0.974;2022-11-15T08:58:25;13.50;;;1.48;;
51438;SDS011;38816;51.142;-0.974;2022-11-15T09:00:50;19.13;;;1.75;;
51438;SDS011;38816;51.142;-0.974;2022-11-15T09:03:16;15.43;;;1.40;;
51438;SDS011;38816;51.142;-0.974;2022-11-15T09:05:41;11.30;;;1.25;;
51438;SDS011;38816;51.142;-0.974;2022-11-15T09:08:07;9.73;;;1.00;;
51438;SDS011;38816;51.142;-0.974;2022-11-15T09:10:33;10.93;;;1.27;;
51438;SDS011;38816;51.142;-0.974;2022-11-15T09:12:58;11.95;;;0.95;;
51438;SDS011;38816;51.142;-0.974;2022-11-15T09:15:23;5.85;;;0.90;;
51438;SDS011;38816;51.142;-0.974;2022-11-15T09:17:49;7.07;;;0.80;;
51438;SDS011;38816;51.142;-0.974;2022-11-15T09:20:14;7.40;;;0.90;;
51438;SDS011;38816;51.142;-0.974;2022-11-15T09:22:40;8.63;;;1.00;;
51438;SDS011;38816;51.142;-0.974;2022-11-15T09:25:06;7.82;;;1.10;;
51438;SDS011;38816;51.142;-0.974;2022-11-15T09:27:31;12.02;;;1.25;;
51438;SDS011;38816;51.142;-0.974;2022-11-15T09:29:57;12.07;;;1.83;;
51438;SDS011;38816;51.142;-0.974;2022-11-15T09:32:22;7.78;;;1.02;;
51438;SDS011;38816;51.142;-0.974;2022-11-15T09:34:48;9.32;;;0.90;;
51438;SDS011;38816;51.142;-0.974;2022-11-15T09:37:14;6.72;;;0.90;;
51438;SDS011;38816;51.142;-0.974;2022-11-15T09:39:40;9.60;;;1.35;;
51438;SDS011;38816;51.142;-0.974;2022-11-15T09:42:09;14.80;;;1.15;;
51438;SDS011;38816;51.142;-0.974;2022-11-15T09:45:23;12.68;;;1.15;;
51438;SDS011;38816;51.142;-0.974;2022-11-15T09:48:06;7.85;;;0.65;;
51438;SDS011;38816;51.142;-0.974;2022-11-15T09:50:41;10.52;;;1.00;;
51438;SDS011;38816;51.142;-0.974;2022-11-15T09:53:13;8.90;;;1.25;;
51438;SDS011;38816;51.142;-0.974;2022-11-15T09:55:59;11.95;;;1.05;;
51438;SDS011;38816;51.142;-0.974;2022-11-15T09:58:30;10.10;;;0.90;;
51438;SDS011;38816;51.142;-0.974;2022-11-15T10:01:03;11.57;;;1.02;;
51438;SDS011;38816;51.142;-0.974;2022-11-15T10:03:36;11.45;;;1.33;;
51438;SDS011;38816;51.142;-0.974;2022-11-15T10:06:08;6.35;;;1.02;;
51438;SDS011;38816;51.142;-0.974;2022-11-15T10:11:09;10.25;;;1.08;;
51438;SDS011;38816;51.142;-0.974;2022-11-15T10:13:37;7.47;;;0.85;;
51438;SDS011;38816;51.142;-0.974;2022-11-15T10:21:25;13.20;;;1.38;;
51438;SDS011;38816;51.142;-0.974;2022-11-15T10:23:59;6.45;;;0.80;;
51438;SDS011;38816;51.142;-0.974;2022-11-15T10:26:24;8.23;;;0.82;;
51438;SDS011;38816;51.142;-0.974;2022-11-15T10:28:50;6.57;;;0.80;;
51438;SDS011;38816;51.142;-0.974;2022-11-15T10:31:22;5.97;;;0.68;;
51438;SDS011;38816;51.142;-0.974;2022-11-15T10:34:03;7.40;;;0.93;;
51438;SDS011;38816;51.142;-0.974;2022-11-15T10:36:44;11.45;;;1.08;;
51438;SDS011;38816;51.142;-0.974;2022-11-15T10:39:11;10.55;;;1.02;;
51438;SDS011;38816;51.142;-0.974;2022-11-15T10:41:40;5.93;;;1.00;;
51438;SDS011;38816;51.142;-0.974;2022-11-15T10:46:32;3.10;;;0.70;;
51438;SDS011;38816;51.142;-0.974;2022-11-15T10:49:11;6.82;;;0.98;;
51438;SDS011;38816;51.142;-0.974;2022-11-15T10:51:47;5.43;;;0.70;;
51438;SDS011;38816;51.142;-0.974;2022-11-15T10:56:53;5.47;;;0.70;;
51438;SDS011;38816;51.142;-0.974;2022-11-15T10:59:30;9.05;;;1.00;;
51438;SDS011;38816;51.142;-0.974;2022-11-15T11:01:58;7.90;;;1.00;;
51438;SDS011;38816;51.142;-0.974;2022-11-15T11:04:25;12.15;;;1.10;;
51438;SDS011;38816;51.142;-0.974;2022-11-15T11:06:51;7.22;;;1.00;;
51438;SDS011;38816;51.142;-0.974;2022-11-15T11:12:02;11.05;;;1.42;;
51438;SDS011;38816;51.142;-0.974;2022-11-15T11:14:30;8.85;;;1.15;;
51438;SDS011;38816;51.142;-0.974;2022-11-15T11:33:42;27.08;;;2.47;;
51438;SDS011;38816;51.142;-0.974;2022-11-15T11:42:31;15.68;;;1.70;;
51438;SDS011;38816;51.142;-0.974;2022-11-15T11:45:03;21.83;;;3.20;;
51438;SDS011;38816;51.142;-0.974;2022-11-15T11:50:36;26.83;;;3.45;;
51438;SDS011;38816;51.142;-0.974;2022-11-15T11:53:09;21.08;;;2.17;;
51438;SDS011;38816;51.142;-0.974;2022-11-15T11:55:43;20.00;;;2.33;;
51438;SDS011;38816;51.142;-0.974;2022-11-15T12:00:48;19.02;;;2.28;;
51438;SDS011;38816;51.142;-0.974;2022-11-15T12:03:24;18.77;;;2.13;;
51438;SDS011;38816;51.142;-0.974;2022-11-15T12:08:23;16.50;;;2.20;;
51438;SDS011;38816;51.142;-0.974;2022-11-15T12:11:00;15.73;;;1.88;;
51438;SDS011;38816;51.142;-0.974;2022-11-15T12:13:39;19.02;;;1.90;;
51438;SDS011;38816;51.142;-0.974;2022-11-15T12:16:12;23.55;;;1.85;;
51438;SDS011;38816;51.142;-0.974;2022-11-15T12:18:46;15.27;;;1.50;;
51438;SDS011;38816;51.142;-0.974;2022-11-15T12:21:24;17.10;;;1.80;;
51438;SDS011;38816;51.142;-0.974;2022-11-15T12:24:24;7.68;;;1.65;;
51438;SDS011;38816;51.142;-0.974;2022-11-15T12:27:31;12.32;;;1.42;;
51438;SDS011;38816;51.142;-0.974;2022-11-15T12:29:56;14.77;;;1.70;;
51438;SDS011;38816;51.142;-0.974;2022-11-15T12:34:58;9.82;;;1.10;;
51438;SDS011;38816;51.142;-0.974;2022-11-15T12:45:23;6.70;;;1.08;;
51438;SDS011;38816;51.142;-0.974;2022-11-15T12:47:51;5.05;;;0.80;;
51438;SDS011;38816;51.142;-0.974;2022-11-15T12:50:18;7.38;;;0.90;;
51438;SDS011;38816;51.142;-0.974;2022-11-15T12:58:54;7.85;;;0.90;;
51438;SDS011;38816;51.142;-0.974;2022-11-15T13:04:12;2.72;;;0.80;;
51438;SDS011;38816;51.142;-0.974;2022-11-15T13:06:48;9.20;;;1.15;;
51438;SDS011;38816;51.142;-0.974;2022-11-15T13:22:42;10.00;;;1.15;;
51438;SDS011;38816;51.142;-0.974;2022-11-15T13:28:18;11.93;;;1.38;;
51438;SDS011;38816;51.142;-0.974;2022-11-15T13:30:53;8.02;;;0.80;;
51438;SDS011;38816;51.142;-0.974;2022-11-15T13:33:24;8.32;;;1.00;;
51438;SDS011;38816;51.142;-0.974;2022-11-15T13:35:56;13.60;;;1.27;;
51438;SDS011;38816;51.142;-0.974;2022-11-15T13:40:49;8.15;;;1.00;;
51438;SDS011;38816;51.142;-0.974;2022-11-15T13:46:10;15.02;;;1.10;;
51438;SDS011;38816;51.142;-0.974;2022-11-15T13:48:46;8.43;;;1.10;;
51438;SDS011;38816;51.142;-0.974;2022-11-15T13:51:20;12.07;;;1.00;;
51438;SDS011;38816;51.142;-0.974;2022-11-15T13:56:37;7.82;;;1.60;;
51438;SDS011;38816;51.142;-0.974;2022-11-15T13:59:10;8.38;;;1.42;;
51438;SDS011;38816;51.142;-0.974;2022-11-15T14:01:41;9.90;;;1.05;;
51438;SDS011;38816;51.142;-0.974;2022-11-15T14:04:11;6.72;;;0.98;;
51438;SDS011;38816;51.142;-0.974;2022-11-15T14:06:44;8.68;;;1.17;;
51438;SDS011;38816;51.142;-0.974;2022-11-15T14:12:19;8.15;;;1.20;;
51438;SDS011;38816;51.142;-0.974;2022-11-15T14:14:49;6.13;;;1.10;;
51438;SDS011;38816;51.142;-0.974;2022-11-15T14:19:53;6.30;;;1.08;;
51438;SDS011;38816;51.142;-0.974;2022-11-15T14:22:20;7.32;;;0.98;;
51438;SDS011;38816;51.142;-0.974;2022-11-15T14:25:33;7.70;;;1.10;;
51438;SDS011;38816;51.142;-0.974;2022-11-15T14:27:41;2.85;;;0.80;;
51438;SDS011;38816;51.142;-0.974;2022-11-15T14:30:14;3.55;;;0.70;;
51438;SDS011;38816;51.142;-0.974;2022-11-15T14:35:11;7.43;;;1.05;;
51438;SDS011;38816;51.142;-0.974;2022-11-15T14:37:41;3.63;;;0.80;;
51438;SDS011;38816;51.142;-0.974;2022-11-15T14:40:08;5.38;;;0.90;;
51438;SDS011;38816;51.142;-0.974;2022-11-15T14:42:44;4.85;;;0.90;;
51438;SDS011;38816;51.142;-0.974;2022-11-15T14:47:40;7.45;;;0.98;;
51438;SDS011;38816;51.142;-0.974;2022-11-15T14:50:06;7.88;;;1.00;;
51438;SDS011;38816;51.142;-0.974;2022-11-15T14:52:35;8.15;;;1.00;;
51438;SDS011;38816;51.142;-0.974;2022-11-15T14:55:02;6.30;;;1.02;;
51438;SDS011;38816;51.142;-0.974;2022-11-15T14:57:29;8.43;;;1.20;;
51438;SDS011;38816;51.142;-0.974;2022-11-15T14:59:55;5.53;;;0.90;;
51438;SDS011;38816;51.142;-0.974;2022-11-15T15:02:22;4.45;;;0.80;;
51438;SDS011;38816;51.142;-0.974;2022-11-15T15:04:50;7.07;;;1.10;;
51438;SDS011;38816;51.142;-0.974;2022-11-15T15:07:15;5.32;;;0.95;;
51438;SDS011;38816;51.142;-0.974;2022-11-15T15:09:41;6.70;;;1.27;;
51438;SDS011;38816;51.142;-0.974;2022-11-15T15:12:13;7.68;;;0.98;;
51438;SDS011;38816;51.142;-0.974;2022-11-15T15:14:49;6.82;;;1.00;;
51438;SDS011;38816;51.142;-0.974;2022-11-15T15:17:15;6.00;;;0.90;;
51438;SDS011;38816;51.142;-0.974;2022-11-15T15:19:41;4.03;;;0.80;;
51438;SDS011;38816;51.142;-0.974;2022-11-15T15:22:17;7.50;;;1.20;;
51438;SDS011;38816;51.142;-0.974;2022-11-15T15:24:44;10.55;;;0.90;;
51438;SDS011;38816;51.142;-0.974;2022-11-15T15:27:10;7.80;;;1.08;;
51438;SDS011;38816;51.142;-0.974;2022-11-15T15:29:36;6.72;;;1.00;;
51438;SDS011;38816;51.142;-0.974;2022-11-15T15:32:01;10.23;;;1.10;;
51438;SDS011;38816;51.142;-0.974;2022-11-15T15:34:27;12.10;;;1.60;;
51438;SDS011;38816;51.142;-0.974;2022-11-15T15:39:53;11.07;;;1.63;;
51438;SDS011;38816;51.142;-0.974;2022-11-15T15:42:20;8.30;;;1.35;;
51438;SDS011;38816;51.142;-0.974;2022-11-15T15:44:47;10.38;;;1.35;;
51438;SDS011;38816;51.142;-0.974;2022-11-15T15:47:22;9.18;;;1.40;;
51438;SDS011;38816;51.142;-0.974;2022-11-15T15:49:48;7.70;;;1.10;;
51438;SDS011;38816;51.142;-0.974;2022-11-15T15:52:15;9.60;;;1.08;;
51438;SDS011;38816;51.142;-0.974;2022-11-15T15:54:40;13.48;;;1.75;;
51438;SDS011;38816;51.142;-0.974;2022-11-15T15:57:06;5.40;;;1.58;;
51438;SDS011;38816;51.142;-0.974;2022-11-15T15:59:33;12.63;;;1.25;;
51438;SDS011;38816;51.142;-0.974;2022-11-15T16:01:58;17.70;;;2.38;;
51438;SDS011;38816;51.142;-0.974;2022-11-15T16:04:24;12.77;;;2.50;;
51438;SDS011;38816;51.142;-0.974;2022-11-15T16:06:49;14.30;;;1.38;;
51438;SDS011;38816;51.142;-0.974;2022-11-15T16:09:18;13.10;;;1.45;;
51438;SDS011;38816;51.142;-0.974;2022-11-15T16:12:04;9.63;;;0.95;;
51438;SDS011;38816;51.142;-0.974;2022-11-15T16:14:30;12.60;;;1.48;;
51438;SDS011;38816;51.142;-0.974;2022-11-15T16:16:56;8.43;;;1.48;;
51438;SDS011;38816;51.142;-0.974;2022-11-15T16:19:21;13.20;;;1.30;;
51438;SDS011;38816;51.142;-0.974;2022-11-15T16:21:47;8.75;;;1.23;;
51438;SDS011;38816;51.142;-0.974;2022-11-15T16:24:12;18.48;;;1.42;;
51438;SDS011;38816;51.142;-0.974;2022-11-15T16:26:37;11.50;;;1.58;;
51438;SDS011;38816;51.142;-0.974;2022-11-15T16:29:03;6.22;;;1.30;;
51438;SDS011;38816;51.142;-0.974;2022-11-15T16:31:28;6.90;;;1.13;;
51438;SDS011;38816;51.142;-0.974;2022-11-15T16:33:54;7.93;;;0.80;;
51438;SDS011;38816;51.142;-0.974;2022-11-15T16:36:23;5.95;;;0.82;;
51438;SDS011;38816;51.142;-0.974;2022-11-15T16:38:51;5.85;;;0.90;;
51438;SDS011;38816;51.142;-0.974;2022-11-15T16:41:17;6.10;;;1.00;;
51438;SDS011;38816;51.142;-0.974;2022-11-15T16:43:46;7.93;;;1.02;;
51438;SDS011;38816;51.142;-0.974;2022-11-15T16:46:19;8.43;;;1.00;;
51438;SDS011;38816;51.142;-0.974;2022-11-15T16:48:49;4.30;;;0.65;;